Hauptseite
METAR-TAF:

METAR-TAF

Flughäfen :

Bermuda, Bermuda

L.F. Wade International Airport

Breite: 32-22N, Länge: 064-41W, Höhe: 6 m

Beobachtung

Neuester Wetterbericht von vor 1 Stunde und 7 Minuten, um 22:55 UTC
Wind 13 kt aus Nord/Nordost
Temperatur 14°C
Luftfeuchtigkeit 58%
Luftdruck 1032 hPa
Sichtweite 10 km oder mehr
Durchbrochene Bewölkung in der Höhe von 4200 ft

METAR: TXKF 242255Z 03013KT 9999 BKN042 14/06 Q1032

Zeit: 21:02 (00:02 UTC)

Prognose

Neuester Wetterbericht von vor 31 Minuten, um 23:31 UTC
Gültige Prognose vom 25 um 00 UTC bis 25 um 24 UTC
Wind 10 kt aus Ost/Nordost
Sichtweite 10 km oder mehr
Durchbrochene Bewölkung in der Höhe von 4000 ft

TAF: TXKF 242331Z 2500/2524 07010KT 9999 BKN040

Wetterbeobachtungen und Prognosen von mehr als 4000 Flughäfen (METAR und TAF Bericht).

Die verfügbaren Stationen werden durch gelbe und rote Markierungen auf der Karte dargestellt.

Führen Sie die Maus auf sie, um den Namen der Station zu sehen.

Darauf klicken, um die Beobachtung von Wetterbeobachtungen und Prognosen zu sehen.

Um die Karte zu ändern : klicken Sie auf den grünen Tasten mit einem schwarzen Kreuz Zum Vergrößern, auf den grünen Button mit einem Gedankenstrich zu verkleinern, oder auf die grünen Pfeile für benachbarte Karten.


METAR-TAF: